createdAt,value
2022-10-15T00:01:21.544Z,16.10
2022-10-15T00:03:48.697Z,16.10
2022-10-15T00:06:21.051Z,16.00
2022-10-15T00:08:48.935Z,16.00
2022-10-15T00:11:18.854Z,16.00
2022-10-15T00:13:45.861Z,16.00
2022-10-15T00:16:16.851Z,15.90
2022-10-15T00:18:44.097Z,15.90
2022-10-15T00:21:13.194Z,15.90
2022-10-15T00:23:40.212Z,15.90
2022-10-15T00:26:10.179Z,15.90
2022-10-15T00:28:37.635Z,15.90
2022-10-15T00:31:07.504Z,15.90
2022-10-15T00:33:34.941Z,15.80
2022-10-15T00:36:09.644Z,15.80
2022-10-15T00:38:37.180Z,15.80
2022-10-15T00:41:06.884Z,15.80
2022-10-15T00:43:49.163Z,15.80
2022-10-15T00:46:22.687Z,15.80
2022-10-15T00:48:57.177Z,15.80
2022-10-15T00:51:31.538Z,15.80
2022-10-15T00:53:59.078Z,15.80
2022-10-15T00:56:31.650Z,15.70
2022-10-15T00:58:59.186Z,15.80
2022-10-15T01:01:26.516Z,15.70
2022-10-15T01:03:55.869Z,15.80
2022-10-15T01:06:23.902Z,15.70
2022-10-15T01:08:51.879Z,15.70
2022-10-15T01:11:40.873Z,15.70
2022-10-15T01:14:13.372Z,15.60
2022-10-15T01:17:00.682Z,15.60
2022-10-15T01:20:05.396Z,15.60
2022-10-15T01:22:38.304Z,15.50
2022-10-15T01:25:43.862Z,15.50
2022-10-15T01:29:03.297Z,15.50
2022-10-15T01:31:51.636Z,15.50
2022-10-15T01:34:53.117Z,15.50
2022-10-15T01:37:44.567Z,15.50
2022-10-15T01:40:20.061Z,15.50
2022-10-15T01:42:57.119Z,15.50
2022-10-15T01:45:43.964Z,15.50
2022-10-15T01:48:33.982Z,15.50
2022-10-15T01:51:03.978Z,15.50
2022-10-15T01:53:34.432Z,15.50
2022-10-15T01:56:07.672Z,15.50
2022-10-15T01:58:41.062Z,15.50
2022-10-15T02:01:08.401Z,15.60
2022-10-15T02:03:50.975Z,15.60
2022-10-15T02:06:20.963Z,15.50
2022-10-15T02:08:53.744Z,15.60
2022-10-15T02:11:20.924Z,15.60
2022-10-15T02:14:16.341Z,15.60
2022-10-15T02:17:03.151Z,15.60
2022-10-15T02:19:39.824Z,15.60
2022-10-15T02:22:12.416Z,15.50
2022-10-15T02:25:02.378Z,15.60
2022-10-15T02:27:32.888Z,15.60
2022-10-15T02:30:04.669Z,15.60
2022-10-15T02:32:35.563Z,15.60
2022-10-15T02:35:03.496Z,15.60
2022-10-15T02:37:32.262Z,15.60
2022-10-15T02:39:59.237Z,15.60
2022-10-15T02:42:27.064Z,15.60
2022-10-15T02:44:54.103Z,15.70
2022-10-15T02:47:21.387Z,15.70
2022-10-15T02:49:48.359Z,15.70
2022-10-15T02:52:15.670Z,15.70
2022-10-15T02:54:42.727Z,15.80
2022-10-15T02:57:09.727Z,15.70
2022-10-15T02:59:36.840Z,15.70
2022-10-15T03:02:04.024Z,15.70
2022-10-15T03:04:32.199Z,15.70
2022-10-15T03:06:59.184Z,15.70
2022-10-15T03:13:08.119Z,15.70
2022-10-15T03:15:43.138Z,15.60
2022-10-15T03:18:10.111Z,15.60
2022-10-15T03:20:37.802Z,15.60
2022-10-15T03:23:04.796Z,15.50
2022-10-15T03:25:32.768Z,15.50
2022-10-15T03:28:02.767Z,15.50
2022-10-15T03:30:36.759Z,15.40
2022-10-15T03:33:04.662Z,15.40
2022-10-15T03:35:32.148Z,15.30
2022-10-15T03:37:59.456Z,15.30
2022-10-15T03:40:26.879Z,15.30
2022-10-15T03:42:57.946Z,15.30
2022-10-15T03:45:26.005Z,15.20
2022-10-15T03:48:09.947Z,15.20
2022-10-15T03:50:37.085Z,15.10
2022-10-15T03:53:05.819Z,15.10
2022-10-15T03:55:34.019Z,15.10
2022-10-15T03:58:01.619Z,15.10
2022-10-15T04:00:30.011Z,15.10
2022-10-15T04:03:00.342Z,15.00
2022-10-15T04:05:29.039Z,15.00
2022-10-15T04:08:02.565Z,15.00
2022-10-15T04:10:32.533Z,15.00
2022-10-15T04:12:59.789Z,14.90
2022-10-15T04:15:27.902Z,14.90
2022-10-15T04:17:59.874Z,14.90
2022-10-15T04:20:28.542Z,14.90
2022-10-15T04:23:06.904Z,14.90
2022-10-15T04:25:37.373Z,14.90
2022-10-15T04:28:04.699Z,14.90
2022-10-15T04:30:34.372Z,14.90
2022-10-15T04:33:04.707Z,14.90
2022-10-15T04:35:32.314Z,14.90
2022-10-15T04:38:10.528Z,14.90
2022-10-15T04:41:06.877Z,14.80
2022-10-15T04:43:54.246Z,14.80
2022-10-15T04:46:22.712Z,14.80
2022-10-15T04:48:51.014Z,14.70
2022-10-15T04:51:21.797Z,14.70
2022-10-15T04:54:09.009Z,14.70
2022-10-15T04:56:41.455Z,14.70
2022-10-15T04:59:08.829Z,14.70
2022-10-15T05:01:55.780Z,14.70
2022-10-15T05:04:22.850Z,14.60
2022-10-15T05:06:49.916Z,14.60
2022-10-15T05:09:20.100Z,14.60
2022-10-15T05:11:51.504Z,14.60
2022-10-15T05:14:18.670Z,14.50
2022-10-15T05:17:01.927Z,14.50
2022-10-15T05:19:29.058Z,14.50
2022-10-15T05:21:56.265Z,14.50
2022-10-15T05:24:25.317Z,14.50
2022-10-15T05:27:05.337Z,14.50
2022-10-15T05:29:33.840Z,14.40
2022-10-15T05:32:00.901Z,14.50
2022-10-15T05:34:30.637Z,14.50
2022-10-15T05:37:04.919Z,14.50
2022-10-15T05:39:32.264Z,14.50
2022-10-15T05:41:59.954Z,14.50
2022-10-15T05:44:37.945Z,14.50
2022-10-15T05:47:05.159Z,14.50
2022-10-15T05:49:33.459Z,14.50
2022-10-15T05:52:12.861Z,14.50
2022-10-15T05:55:06.032Z,14.50
2022-10-15T05:57:33.000Z,14.50
2022-10-15T06:00:05.935Z,14.50
2022-10-15T06:02:39.258Z,14.50
2022-10-15T06:05:06.802Z,14.60
2022-10-15T06:07:33.913Z,14.60
2022-10-15T06:10:05.641Z,14.60
2022-10-15T06:12:34.444Z,14.60
2022-10-15T06:15:01.516Z,14.70
2022-10-15T06:17:28.468Z,14.70
2022-10-15T06:19:55.443Z,14.80
2022-10-15T06:22:22.746Z,14.80
2022-10-15T06:24:49.868Z,14.90
2022-10-15T06:27:17.021Z,15.00
2022-10-15T06:29:44.056Z,15.00
2022-10-15T06:32:11.873Z,15.10
2022-10-15T06:34:43.608Z,15.20
2022-10-15T06:37:10.741Z,15.30
2022-10-15T06:39:37.883Z,15.30
2022-10-15T06:42:04.916Z,15.40
2022-10-15T06:44:41.216Z,15.50
2022-10-15T06:47:09.060Z,15.60
2022-10-15T06:49:35.993Z,15.70
2022-10-15T06:52:03.924Z,15.70
2022-10-15T06:54:31.094Z,15.80
2022-10-15T06:56:58.189Z,15.90
2022-10-15T06:59:25.061Z,16.00
2022-10-15T07:01:54.501Z,16.10
2022-10-15T07:04:23.759Z,16.20
2022-10-15T07:06:50.802Z,16.30
2022-10-15T07:09:20.614Z,16.50
2022-10-15T07:11:47.597Z,16.70
2022-10-15T07:14:14.712Z,16.80
2022-10-15T07:16:41.704Z,16.90
2022-10-15T07:19:08.677Z,17.10
2022-10-15T07:21:35.717Z,17.20
2022-10-15T07:24:02.716Z,17.30
2022-10-15T07:26:31.218Z,17.40
2022-10-15T07:28:59.508Z,17.50
2022-10-15T07:31:26.876Z,17.60
2022-10-15T07:33:53.824Z,17.70
2022-10-15T07:36:20.924Z,17.80
2022-10-15T07:38:47.904Z,17.90
2022-10-15T07:41:14.956Z,18.10
2022-10-15T07:43:44.549Z,18.10
2022-10-15T07:46:11.877Z,18.30
2022-10-15T07:48:38.954Z,18.50
2022-10-15T07:51:07.401Z,18.60
2022-10-15T07:53:34.534Z,18.80
2022-10-15T07:56:12.324Z,18.90
2022-10-15T07:58:39.845Z,19.00
2022-10-15T08:01:08.506Z,19.20
2022-10-15T08:03:36.262Z,19.30
2022-10-15T08:06:07.957Z,19.50
2022-10-15T08:08:35.934Z,19.60
2022-10-15T08:11:11.090Z,19.80
2022-10-15T08:13:42.339Z,19.90
2022-10-15T08:16:10.979Z,20.00
2022-10-15T08:18:38.730Z,20.20
2022-10-15T08:21:07.893Z,20.30
2022-10-15T08:23:35.645Z,20.50
2022-10-15T08:26:03.052Z,20.60
2022-10-15T08:28:31.396Z,20.70
2022-10-15T08:31:04.285Z,20.80
2022-10-15T08:33:37.196Z,20.90
2022-10-15T08:36:07.457Z,21.00
2022-10-15T08:38:35.551Z,21.10
2022-10-15T08:41:05.506Z,21.30
2022-10-15T08:43:42.774Z,21.30
2022-10-15T08:46:38.885Z,21.50
2022-10-15T08:49:14.287Z,21.50
2022-10-15T08:51:48.299Z,21.60
2022-10-15T08:54:18.208Z,21.60
2022-10-15T08:56:50.956Z,21.60
2022-10-15T08:59:42.917Z,21.70
2022-10-15T09:02:15.762Z,21.80
2022-10-15T09:04:59.773Z,21.90
2022-10-15T09:07:31.139Z,22.00
2022-10-15T09:10:25.410Z,22.00
2022-10-15T09:13:10.380Z,22.10
2022-10-15T09:15:50.701Z,22.20
2022-10-15T09:18:22.871Z,22.20
2022-10-15T09:20:50.760Z,22.30
2022-10-15T09:23:20.865Z,22.40
2022-10-15T09:26:09.843Z,22.50
2022-10-15T09:28:50.506Z,22.60
2022-10-15T09:31:28.022Z,22.70
2022-10-15T09:34:03.937Z,22.80
2022-10-15T09:36:51.423Z,22.90
2022-10-15T09:39:46.039Z,22.90
2022-10-15T09:42:39.036Z,23.00
2022-10-15T09:45:11.872Z,23.00
2022-10-15T09:47:41.159Z,23.10
2022-10-15T09:50:10.538Z,23.00
2022-10-15T09:52:59.475Z,23.10
2022-10-15T09:55:32.011Z,23.10
2022-10-15T09:58:06.356Z,23.20
2022-10-15T10:00:52.362Z,23.20
2022-10-15T10:03:19.761Z,23.20
2022-10-15T10:05:47.497Z,23.20
2022-10-15T10:08:25.644Z,23.20
2022-10-15T10:10:57.752Z,23.30
2022-10-15T10:13:26.233Z,23.40
2022-10-15T10:15:58.421Z,23.50
2022-10-15T10:18:26.802Z,23.60
2022-10-15T10:21:03.712Z,23.60
2022-10-15T10:23:36.389Z,23.70
2022-10-15T10:26:09.505Z,23.80
2022-10-15T10:29:04.684Z,23.90
2022-10-15T10:31:42.743Z,24.00
2022-10-15T10:34:31.763Z,24.10
2022-10-15T10:37:03.953Z,24.20
2022-10-15T10:39:36.625Z,24.30
2022-10-15T10:42:22.815Z,24.30
2022-10-15T10:44:49.819Z,24.30
2022-10-15T10:47:26.143Z,24.40
2022-10-15T10:49:58.930Z,24.40
2022-10-15T10:52:28.899Z,24.40
2022-10-15T10:55:19.277Z,24.60
2022-10-15T10:57:57.749Z,24.70
2022-10-15T11:00:41.168Z,24.80
2022-10-15T11:03:27.759Z,25.00
2022-10-15T11:06:23.295Z,25.00
2022-10-15T11:09:03.082Z,25.00
2022-10-15T11:11:34.295Z,25.00
2022-10-15T11:14:10.195Z,25.10
2022-10-15T11:16:54.868Z,25.20
2022-10-15T11:20:24.912Z,25.30
2022-10-15T11:23:12.156Z,25.40
2022-10-15T11:26:20.462Z,25.60
2022-10-15T11:29:11.427Z,25.60
2022-10-15T11:32:14.634Z,25.70
2022-10-15T11:35:17.147Z,25.80
2022-10-15T11:38:14.167Z,25.80
2022-10-15T11:41:11.604Z,25.90
2022-10-15T11:44:04.706Z,25.90
2022-10-15T11:46:55.025Z,25.90
2022-10-15T11:49:42.128Z,26.00
2022-10-15T11:52:30.994Z,26.00
2022-10-15T11:55:19.382Z,26.00
2022-10-15T11:57:51.190Z,26.10
2022-10-15T12:00:41.606Z,26.10
2022-10-15T12:03:17.127Z,26.20
2022-10-15T12:05:54.592Z,26.10
2022-10-15T12:08:25.089Z,26.10
2022-10-15T12:11:04.276Z,26.20
2022-10-15T12:13:42.342Z,26.20
2022-10-15T12:16:35.475Z,26.20
2022-10-15T12:19:22.389Z,26.20
2022-10-15T12:21:56.771Z,26.20
2022-10-15T12:24:41.611Z,26.10
2022-10-15T12:27:20.585Z,26.10
2022-10-15T12:30:13.997Z,26.00
2022-10-15T12:32:46.063Z,25.90
2022-10-15T12:35:15.882Z,25.80
2022-10-15T12:37:46.276Z,25.80
2022-10-15T12:40:39.971Z,25.70
2022-10-15T12:43:19.932Z,25.80
2022-10-15T12:46:03.185Z,25.80
2022-10-15T12:48:44.617Z,25.70
2022-10-15T12:51:23.581Z,25.70
2022-10-15T12:53:58.970Z,25.70
2022-10-15T12:56:40.252Z,25.80
2022-10-15T12:59:32.068Z,25.80
2022-10-15T13:02:02.419Z,25.90
2022-10-15T13:04:39.151Z,25.90
2022-10-15T13:07:06.381Z,25.90
2022-10-15T13:09:33.679Z,25.90
2022-10-15T13:12:02.711Z,25.90
2022-10-15T13:14:33.804Z,25.90
2022-10-15T13:17:05.287Z,25.90
2022-10-15T13:19:46.200Z,25.90
2022-10-15T13:22:29.624Z,25.90
2022-10-15T13:24:57.109Z,25.90
2022-10-15T13:27:32.016Z,26.00
2022-10-15T13:30:04.479Z,25.90
2022-10-15T13:32:36.873Z,25.80
2022-10-15T13:35:12.345Z,25.70
2022-10-15T13:37:41.059Z,25.70
2022-10-15T13:40:08.746Z,25.70
2022-10-15T13:42:35.870Z,25.60
2022-10-15T13:45:05.074Z,25.60
2022-10-15T13:47:37.728Z,25.60
2022-10-15T13:50:17.826Z,25.60
2022-10-15T13:53:10.954Z,25.60
2022-10-15T13:55:40.156Z,25.50
2022-10-15T13:58:27.679Z,25.40
2022-10-15T14:01:03.292Z,25.20
2022-10-15T14:03:32.147Z,25.20
2022-10-15T14:06:14.373Z,25.00
2022-10-15T14:08:41.364Z,25.00
2022-10-15T14:11:13.057Z,24.90
2022-10-15T14:13:46.692Z,24.80
2022-10-15T14:16:25.589Z,24.80
2022-10-15T14:19:06.644Z,24.70
2022-10-15T14:21:35.491Z,24.60
2022-10-15T14:24:16.409Z,24.60
2022-10-15T14:26:44.354Z,24.60
2022-10-15T14:29:21.181Z,24.60
2022-10-15T14:31:49.513Z,24.60
2022-10-15T14:34:34.668Z,24.60
2022-10-15T14:37:32.862Z,24.60
2022-10-15T14:40:11.700Z,24.50
2022-10-15T14:42:43.249Z,24.50
2022-10-15T14:45:27.899Z,24.40
2022-10-15T14:48:11.078Z,24.50
2022-10-15T14:50:42.763Z,24.60
2022-10-15T14:53:16.136Z,24.60
2022-10-15T14:55:51.303Z,24.60
2022-10-15T14:58:21.492Z,24.60
2022-10-15T15:00:54.951Z,24.60
2022-10-15T15:03:29.959Z,24.50
2022-10-15T15:05:58.388Z,24.40
2022-10-15T15:08:26.298Z,24.40
2022-10-15T15:10:56.544Z,24.30
2022-10-15T15:13:26.223Z,24.20
2022-10-15T15:15:53.609Z,24.10
2022-10-15T15:18:21.083Z,24.10
2022-10-15T15:20:49.789Z,24.00
2022-10-15T15:23:20.823Z,24.00
2022-10-15T15:25:48.181Z,23.90
2022-10-15T15:28:20.162Z,23.90
2022-10-15T15:30:55.116Z,23.80
2022-10-15T15:33:22.072Z,23.80
2022-10-15T15:35:51.920Z,23.80
2022-10-15T15:38:30.704Z,23.70
2022-10-15T15:41:06.011Z,23.70
2022-10-15T15:43:33.029Z,23.60
2022-10-15T15:45:59.959Z,23.60
2022-10-15T15:48:26.942Z,23.50
2022-10-15T15:50:54.617Z,23.50
2022-10-15T15:53:21.649Z,23.40
2022-10-15T15:55:48.741Z,23.40
2022-10-15T15:58:15.765Z,23.40
2022-10-15T16:00:42.747Z,23.40
2022-10-15T16:03:13.431Z,23.30
2022-10-15T16:05:41.602Z,23.30
2022-10-15T16:08:09.502Z,23.20
2022-10-15T16:10:36.501Z,23.10
2022-10-15T16:13:04.038Z,23.10
2022-10-15T16:15:31.004Z,23.10
2022-10-15T16:17:57.937Z,23.00
2022-10-15T16:20:24.941Z,23.00
2022-10-15T16:22:53.469Z,23.00
2022-10-15T16:25:22.453Z,23.00
2022-10-15T16:27:52.066Z,22.90
2022-10-15T16:30:19.487Z,22.80
2022-10-15T16:32:46.565Z,22.80
2022-10-15T16:35:13.669Z,22.70
2022-10-15T16:37:40.716Z,22.60
2022-10-15T16:40:08.437Z,22.60
2022-10-15T16:42:35.509Z,22.50
2022-10-15T16:45:02.543Z,22.40
2022-10-15T16:47:29.589Z,22.40
2022-10-15T16:49:56.654Z,22.30
2022-10-15T16:52:23.999Z,22.30
2022-10-15T16:54:51.156Z,22.20
2022-10-15T16:57:18.095Z,22.20
2022-10-15T16:59:45.077Z,22.20
2022-10-15T17:02:12.159Z,22.20
2022-10-15T17:04:39.866Z,22.20
2022-10-15T17:07:06.842Z,22.10
2022-10-15T17:09:33.905Z,22.00
2022-10-15T17:12:00.957Z,22.00
2022-10-15T17:14:28.174Z,21.90
2022-10-15T17:16:55.137Z,21.90
2022-10-15T17:19:27.854Z,21.80
2022-10-15T17:21:57.611Z,21.80
2022-10-15T17:24:24.570Z,21.70
2022-10-15T17:26:51.591Z,21.60
2022-10-15T17:29:20.864Z,21.50
2022-10-15T17:31:48.833Z,21.50
2022-10-15T17:34:16.505Z,21.40
2022-10-15T17:36:47.320Z,21.40
2022-10-15T17:39:20.379Z,21.30
2022-10-15T17:41:48.055Z,21.30
2022-10-15T17:44:15.265Z,21.20
2022-10-15T17:46:42.537Z,21.20
2022-10-15T17:49:11.104Z,21.10
2022-10-15T17:51:39.533Z,21.00
2022-10-15T17:54:06.594Z,20.90
2022-10-15T17:56:35.362Z,20.90
2022-10-15T17:59:05.209Z,20.90
2022-10-15T18:04:23.066Z,20.80
2022-10-15T18:06:50.016Z,20.80
2022-10-15T18:09:24.893Z,20.80
2022-10-15T18:11:55.657Z,20.80
2022-10-15T18:14:31.088Z,20.80
2022-10-15T18:16:58.341Z,20.90
2022-10-15T18:19:28.294Z,20.80
2022-10-15T18:21:55.686Z,20.90
2022-10-15T18:24:23.698Z,20.90
2022-10-15T18:26:51.702Z,20.80
2022-10-15T18:29:18.926Z,20.80
2022-10-15T18:31:47.176Z,20.80
2022-10-15T18:34:14.703Z,20.80
2022-10-15T18:36:43.554Z,20.80
2022-10-15T18:39:11.170Z,20.80
2022-10-15T18:41:40.081Z,20.80
2022-10-15T18:44:16.813Z,20.70
2022-10-15T18:46:45.131Z,20.70
2022-10-15T18:49:13.937Z,20.60
2022-10-15T18:51:41.322Z,20.60
2022-10-15T18:54:10.770Z,20.50
2022-10-15T18:56:37.921Z,20.50
2022-10-15T18:59:05.013Z,20.50
2022-10-15T19:01:41.766Z,20.50
2022-10-15T19:04:14.626Z,20.50
2022-10-15T19:06:44.397Z,20.50
2022-10-15T19:09:15.369Z,20.40
2022-10-15T19:11:44.440Z,20.40
2022-10-15T19:14:12.238Z,20.40
2022-10-15T19:16:39.290Z,20.30
2022-10-15T19:19:13.193Z,20.30
2022-10-15T19:21:40.237Z,20.20
2022-10-15T19:24:07.260Z,20.20
2022-10-15T19:26:34.849Z,20.10
2022-10-15T19:29:02.516Z,20.10
2022-10-15T19:31:32.439Z,20.00
2022-10-15T19:34:00.258Z,19.90
2022-10-15T19:36:34.222Z,19.90
2022-10-15T19:39:03.895Z,19.90
2022-10-15T19:41:30.868Z,19.80
2022-10-15T19:43:57.896Z,19.80
2022-10-15T19:46:24.996Z,19.70
2022-10-15T19:48:52.033Z,19.70
2022-10-15T19:51:21.625Z,19.70
2022-10-15T19:53:56.408Z,19.60
2022-10-15T19:56:23.685Z,19.60
2022-10-15T19:58:56.041Z,19.50
2022-10-15T20:01:23.178Z,19.40
2022-10-15T20:03:50.237Z,19.40
2022-10-15T20:06:17.979Z,19.40
2022-10-15T20:08:45.189Z,19.40
2022-10-15T20:11:12.646Z,19.30
2022-10-15T20:13:40.389Z,19.30
2022-10-15T20:16:10.260Z,19.30
2022-10-15T20:18:37.602Z,19.30
2022-10-15T20:21:09.305Z,19.30
2022-10-15T20:23:38.159Z,19.30
2022-10-15T20:26:07.390Z,19.30
2022-10-15T20:28:39.432Z,19.30
2022-10-15T20:31:12.229Z,19.30
2022-10-15T20:33:41.048Z,19.30
2022-10-15T20:36:12.800Z,19.30
2022-10-15T20:38:42.169Z,19.30
2022-10-15T20:41:17.175Z,19.30
2022-10-15T20:43:45.479Z,19.30
2022-10-15T20:46:19.197Z,19.30
2022-10-15T20:48:46.612Z,19.30
2022-10-15T20:51:17.523Z,19.30
2022-10-15T20:53:45.700Z,19.30
2022-10-15T20:56:12.822Z,19.40
2022-10-15T20:58:39.922Z,19.30
2022-10-15T21:01:07.869Z,19.40
2022-10-15T21:03:35.053Z,19.40
2022-10-15T21:06:02.223Z,19.40
2022-10-15T21:08:29.454Z,19.40
2022-10-15T21:11:07.554Z,19.40
2022-10-15T21:13:35.028Z,19.40
2022-10-15T21:16:05.628Z,19.40
2022-10-15T21:18:33.913Z,19.40
2022-10-15T21:21:02.730Z,19.40
2022-10-15T21:23:30.957Z,19.40
2022-10-15T21:26:03.363Z,19.40
2022-10-15T21:28:30.910Z,19.40
2022-10-15T21:30:57.895Z,19.40
2022-10-15T21:33:24.884Z,19.40
2022-10-15T21:35:51.843Z,19.40
2022-10-15T21:38:18.795Z,19.40
2022-10-15T21:40:49.588Z,19.40
2022-10-15T21:43:16.769Z,19.40
2022-10-15T21:45:43.801Z,19.40
2022-10-15T21:48:10.771Z,19.40
2022-10-15T21:50:37.760Z,19.40
2022-10-15T21:53:05.146Z,19.40
2022-10-15T21:55:32.375Z,19.40
2022-10-15T21:57:59.413Z,19.40
2022-10-15T22:00:26.595Z,19.40
2022-10-15T22:02:53.561Z,19.40
2022-10-15T22:05:20.483Z,19.40
2022-10-15T22:07:47.446Z,19.40
2022-10-15T22:10:14.477Z,19.40
2022-10-15T22:12:41.559Z,19.40
2022-10-15T22:15:08.927Z,19.40
2022-10-15T22:17:35.907Z,19.40
2022-10-15T22:20:03.000Z,19.40
2022-10-15T22:22:29.964Z,19.40
2022-10-15T22:24:59.591Z,19.40
2022-10-15T22:27:27.252Z,19.40
2022-10-15T22:29:54.213Z,19.30
2022-10-15T22:32:21.142Z,19.40
2022-10-15T22:34:48.134Z,19.40
2022-10-15T22:37:15.118Z,19.40
2022-10-15T22:39:42.060Z,19.40
2022-10-15T22:42:09.198Z,19.40
2022-10-15T22:44:36.299Z,19.30
2022-10-15T22:47:03.393Z,19.30
2022-10-15T22:49:30.392Z,19.30
2022-10-15T22:51:57.397Z,19.30
2022-10-15T22:54:24.406Z,19.30
2022-10-15T22:56:52.082Z,19.30
2022-10-15T22:59:19.326Z,19.20
2022-10-15T23:01:46.437Z,19.20
2022-10-15T23:04:15.397Z,19.20
2022-10-15T23:06:42.541Z,19.20
2022-10-15T23:09:11.305Z,19.20
2022-10-15T23:11:41.185Z,19.20
2022-10-15T23:14:12.025Z,19.20
2022-10-15T23:16:47.333Z,19.20
2022-10-15T23:19:17.542Z,19.20
2022-10-15T23:21:47.852Z,19.10
2022-10-15T23:24:15.981Z,19.10
2022-10-15T23:26:43.570Z,19.10
2022-10-15T23:29:19.078Z,19.10
2022-10-15T23:31:46.905Z,19.10
2022-10-15T23:34:17.173Z,19.10
2022-10-15T23:36:44.323Z,19.00
2022-10-15T23:39:18.026Z,19.00
2022-10-15T23:41:45.327Z,19.10
2022-10-15T23:44:12.700Z,19.00
2022-10-15T23:46:40.213Z,19.10
2022-10-15T23:49:07.363Z,19.00
2022-10-15T23:51:37.008Z,19.10
2022-10-15T23:54:11.622Z,19.00
2022-10-15T23:56:38.713Z,19.10
2022-10-15T23:59:05.716Z,19.00
